createdAt,value
2022-11-10T00:07:14.281Z,12.03
2022-11-10T00:17:32.623Z,11.88
2022-11-10T00:27:51.282Z,11.80
2022-11-10T00:38:10.174Z,11.82
2022-11-10T00:48:28.508Z,11.75
2022-11-10T00:58:46.975Z,11.53
2022-11-10T01:09:06.273Z,11.39
2022-11-10T01:19:25.077Z,11.40
2022-11-10T01:29:44.203Z,11.37
2022-11-10T01:40:03.314Z,11.28
2022-11-10T01:50:22.436Z,11.13
2022-11-10T02:00:41.154Z,10.94
2022-11-10T02:11:00.148Z,10.86
2022-11-10T02:21:19.250Z,11.01
2022-11-10T02:31:38.125Z,11.25
2022-11-10T02:41:57.298Z,11.38
2022-11-10T02:52:16.332Z,11.35
2022-11-10T03:02:35.433Z,11.21
2022-11-10T03:12:54.590Z,11.02
2022-11-10T03:23:13.082Z,10.84
2022-11-10T03:33:32.362Z,10.71
2022-11-10T03:43:51.480Z,10.63
2022-11-10T03:54:10.254Z,10.58
2022-11-10T03:55:16.302Z,9.88
2022-11-10T04:05:53.930Z,10.12
2022-11-10T04:16:20.393Z,9.57
2022-11-10T04:26:47.979Z,9.79
2022-11-10T04:37:06.739Z,9.85
2022-11-10T04:47:25.522Z,9.89
2022-11-10T04:57:44.587Z,9.97
2022-11-10T05:08:03.613Z,10.09
2022-11-10T05:18:22.899Z,10.29
2022-11-10T05:28:41.559Z,10.38
2022-11-10T05:39:00.658Z,10.36
2022-11-10T05:49:19.915Z,10.44
2022-11-10T05:59:38.588Z,10.58
2022-11-10T06:09:57.908Z,10.66
2022-11-10T06:20:17.142Z,10.63
2022-11-10T06:30:35.929Z,10.49
2022-11-10T06:40:54.741Z,10.28
2022-11-10T06:51:14.006Z,10.10
2022-11-10T07:01:32.770Z,9.98
2022-11-10T07:11:51.608Z,9.93
2022-11-10T07:22:11.417Z,10.07
2022-11-10T07:32:29.798Z,10.39
2022-11-10T07:42:48.692Z,10.78
2022-11-10T07:53:07.967Z,11.27
2022-11-10T08:03:26.827Z,11.80
2022-11-10T08:13:45.961Z,12.40
2022-11-10T08:24:05.031Z,13.07
2022-11-10T08:34:23.879Z,13.74
2022-11-10T08:44:43.117Z,14.12
2022-11-10T08:55:01.755Z,14.30
2022-11-10T09:05:20.135Z,14.81
2022-11-10T09:15:38.740Z,15.64
2022-11-10T09:25:57.372Z,16.17
2022-11-10T09:36:15.906Z,16.22
2022-11-10T09:46:34.954Z,16.15
2022-11-10T09:56:54.198Z,16.13
2022-11-10T10:07:12.691Z,16.02
2022-11-10T10:17:30.614Z,15.88
2022-11-10T10:27:48.956Z,15.78
2022-11-10T10:38:07.971Z,15.75
2022-11-10T10:48:26.880Z,15.76
2022-11-10T10:58:45.045Z,15.81
2022-11-10T11:09:04.106Z,16.03
2022-11-10T11:19:23.217Z,16.30
2022-11-10T11:29:42.087Z,16.45
2022-11-10T11:40:14.018Z,16.52
2022-11-10T11:50:33.051Z,16.49
2022-11-10T12:00:52.141Z,16.43
2022-11-10T12:11:11.414Z,16.38
2022-11-10T12:21:30.219Z,16.35
2022-11-10T12:31:49.106Z,16.35
2022-11-10T12:42:08.159Z,16.37
2022-11-10T12:52:27.237Z,16.40
2022-11-10T13:02:46.298Z,16.43
2022-11-10T13:13:05.180Z,16.45
2022-11-10T13:23:35.420Z,16.50
2022-11-10T13:33:54.307Z,16.56
2022-11-10T13:44:13.154Z,16.58
2022-11-10T13:54:32.189Z,16.55
2022-11-10T14:04:51.252Z,16.51
2022-11-10T14:15:10.346Z,16.44
2022-11-10T14:25:30.526Z,16.35
2022-11-10T14:35:49.273Z,16.23
2022-11-10T14:46:08.296Z,16.11
2022-11-10T14:56:27.544Z,15.97
2022-11-10T15:06:47.290Z,15.72
2022-11-10T15:17:06.369Z,15.40
2022-11-10T15:27:25.320Z,15.07
2022-11-10T15:37:44.386Z,14.73
2022-11-10T15:48:03.521Z,14.35
2022-11-10T15:58:23.076Z,13.94
2022-11-10T16:08:41.601Z,13.58
2022-11-10T16:19:00.778Z,13.33
2022-11-10T16:29:19.602Z,13.16
2022-11-10T16:39:39.073Z,13.04
2022-11-10T16:49:57.568Z,12.93
2022-11-10T17:00:16.655Z,12.83
2022-11-10T17:10:35.610Z,12.72
2022-11-10T17:20:56.364Z,12.55
2022-11-10T17:31:15.186Z,12.38
2022-11-10T17:41:33.901Z,12.19
2022-11-10T17:51:52.655Z,11.98
2022-11-10T18:02:12.931Z,11.81
2022-11-10T18:12:31.657Z,11.70
2022-11-10T18:22:50.644Z,11.63
2022-11-10T18:33:09.935Z,11.63
2022-11-10T18:43:28.871Z,11.64
2022-11-10T18:53:48.039Z,11.60
2022-11-10T19:04:06.935Z,11.48
2022-11-10T19:14:25.914Z,11.30
2022-11-10T19:25:06.566Z,11.10
2022-11-10T19:35:04.532Z,10.90
2022-11-10T19:45:35.801Z,10.74
2022-11-10T19:55:54.610Z,10.62
2022-11-10T20:06:13.660Z,10.55
2022-11-10T20:16:32.725Z,10.50
2022-11-10T20:26:51.830Z,10.45
2022-11-10T20:37:10.939Z,10.42
2022-11-10T20:47:30.032Z,10.37
2022-11-10T20:57:48.835Z,10.33
2022-11-10T21:08:08.139Z,10.30
2022-11-10T21:18:27.040Z,10.25
2022-11-10T21:28:45.862Z,10.18
2022-11-10T21:39:04.780Z,10.10
2022-11-10T21:49:23.841Z,10.04
2022-11-10T21:59:42.842Z,9.96
2022-11-10T22:10:20.565Z,9.91
2022-11-10T22:20:38.895Z,9.89
2022-11-10T22:30:58.236Z,9.90
2022-11-10T22:41:35.451Z,9.92
2022-11-10T22:51:54.069Z,9.94
2022-11-10T23:02:14.154Z,9.98
2022-11-10T23:12:33.107Z,9.98
2022-11-10T23:22:52.140Z,9.95
2022-11-10T23:33:11.052Z,9.92
2022-11-10T23:43:30.195Z,9.91
2022-11-10T23:53:49.151Z,9.89
